createdAt,value
2018-01-15T05:00:47.779Z,0
2018-01-15T05:01:13.254Z,0
2018-01-15T05:01:38.747Z,0
2018-01-15T05:02:04.252Z,0
2018-01-15T05:02:29.722Z,0
2018-01-15T05:02:55.231Z,0
2018-01-15T05:03:20.740Z,0
2018-01-15T05:03:46.227Z,0
2018-01-15T05:04:11.703Z,0
2018-01-15T05:04:37.186Z,0
2018-01-15T05:05:02.674Z,0
2018-01-15T05:05:28.166Z,0
2018-01-15T05:05:53.669Z,0
2018-01-15T05:06:19.132Z,0
2018-01-15T05:06:44.638Z,0
2018-01-15T05:07:10.166Z,0
2018-01-15T05:07:35.674Z,0
2018-01-15T05:08:01.174Z,0
2018-01-15T05:08:26.653Z,0
2018-01-15T05:08:52.148Z,0
2018-01-15T05:09:17.626Z,0
2018-01-15T05:09:43.126Z,0
2018-01-15T05:10:08.641Z,0
2018-01-15T05:10:34.134Z,0
2018-01-15T05:10:59.621Z,0
2018-01-15T05:12:23.104Z,0
2018-01-15T05:12:48.598Z,0
2018-01-15T05:13:14.093Z,0
2018-01-15T05:13:39.570Z,0
2018-01-15T05:14:05.063Z,0
2018-01-15T05:14:30.559Z,0
2018-01-15T05:14:56.020Z,0
2018-01-15T05:15:21.485Z,0
2018-01-15T05:15:46.968Z,0
2018-01-15T05:16:12.453Z,0
2018-01-15T05:16:37.962Z,0
2018-01-15T05:17:56.383Z,0
2018-01-15T05:18:21.877Z,0
2018-01-15T05:18:47.351Z,0
2018-01-15T05:19:12.824Z,0
2018-01-15T05:19:38.312Z,0
2018-01-15T05:20:03.782Z,0
2018-01-15T05:21:12.023Z,0
2018-01-15T05:21:37.465Z,0
2018-01-15T05:22:02.953Z,0
2018-01-15T05:22:28.413Z,0
2018-01-15T05:22:53.908Z,0
2018-01-15T05:23:19.390Z,0
2018-01-15T05:23:44.859Z,0
2018-01-15T05:24:10.363Z,0
2018-01-15T05:24:35.849Z,0
2018-01-15T05:25:01.379Z,0
2018-01-15T05:25:26.836Z,0
2018-01-15T05:25:52.324Z,0
2018-01-15T05:26:17.823Z,0
2018-01-15T05:26:43.331Z,0
2018-01-15T05:27:08.839Z,0
2018-01-15T05:27:34.339Z,0
2018-01-15T05:27:59.835Z,0
2018-01-15T05:28:25.328Z,0
2018-01-15T05:28:50.833Z,0
2018-01-15T05:29:16.321Z,0
2018-01-15T05:29:41.782Z,0
2018-01-15T05:30:07.257Z,0
2018-01-15T05:30:32.715Z,0
2018-01-15T05:30:58.202Z,0
2018-01-15T05:31:23.687Z,0
2018-01-15T05:31:49.203Z,0
2018-01-15T05:32:14.692Z,0
2018-01-15T05:32:40.189Z,0
2018-01-15T05:33:05.657Z,0
2018-01-15T05:33:31.137Z,0
2018-01-15T05:33:56.656Z,0
2018-01-15T05:34:22.170Z,0
2018-01-15T05:35:41.083Z,0
2018-01-15T05:36:06.566Z,0
2018-01-15T05:36:32.044Z,0
2018-01-15T05:38:01.158Z,0
2018-01-15T05:38:26.633Z,0
2018-01-15T05:38:52.112Z,0
2018-01-15T05:39:17.576Z,0
2018-01-15T05:39:43.047Z,0
2018-01-15T05:40:08.526Z,0
2018-01-15T05:40:33.999Z,0
2018-01-15T05:40:59.486Z,0
2018-01-15T05:41:25.014Z,0
2018-01-15T05:41:50.473Z,0
2018-01-15T05:42:15.987Z,0
2018-01-15T05:42:41.471Z,0
2018-01-15T05:43:06.962Z,0
2018-01-15T05:43:32.450Z,0
2018-01-15T05:43:57.932Z,0
2018-01-15T05:44:23.399Z,0
2018-01-15T05:44:48.840Z,0
2018-01-15T05:45:14.335Z,0
2018-01-15T05:45:39.830Z,0
2018-01-15T05:46:05.341Z,0
2018-01-15T05:46:30.802Z,0
2018-01-15T05:46:56.301Z,0
2018-01-15T05:47:21.810Z,0
2018-01-15T05:47:47.370Z,0
2018-01-15T05:48:12.871Z,0
2018-01-15T05:49:21.579Z,0
2018-01-15T05:49:47.060Z,0
2018-01-15T05:50:12.548Z,0
2018-01-15T05:50:38.041Z,0
2018-01-15T05:51:03.597Z,0
2018-01-15T05:51:29.074Z,0
2018-01-15T05:51:54.571Z,0
2018-01-15T05:53:03.289Z,0
2018-01-15T05:53:28.777Z,0
2018-01-15T05:53:54.258Z,0
2018-01-15T05:54:19.721Z,0
2018-01-15T05:55:43.898Z,0
2018-01-15T05:56:09.371Z,0
2018-01-15T05:56:34.857Z,0
2018-01-15T05:57:00.357Z,0
2018-01-15T05:58:29.431Z,0
2018-01-15T05:58:54.925Z,0
2018-01-15T05:59:20.422Z,0
2018-01-15T05:59:45.895Z,0
2018-01-15T06:00:11.415Z,0
2018-01-15T06:00:36.875Z,0
2018-01-15T06:01:02.360Z,0
2018-01-15T06:01:27.852Z,0
2018-01-15T06:02:41.653Z,0
2018-01-15T06:03:07.184Z,0
2018-01-15T06:03:32.647Z,0
2018-01-15T06:03:58.126Z,0
2018-01-15T06:04:23.637Z,0
2018-01-15T06:04:49.112Z,0
2018-01-15T06:05:14.558Z,0
2018-01-15T06:05:40.078Z,0
2018-01-15T06:06:05.596Z,0
2018-01-15T06:06:31.126Z,0
2018-01-15T06:06:56.568Z,0
2018-01-15T06:07:22.073Z,0
2018-01-15T06:07:47.524Z,0
2018-01-15T06:08:13.025Z,0
2018-01-15T06:08:38.501Z,0
2018-01-15T06:10:02.514Z,0
2018-01-15T06:10:28.012Z,0
2018-01-15T06:10:53.526Z,0
2018-01-15T06:12:02.212Z,0
2018-01-15T06:12:27.690Z,0
2018-01-15T06:12:53.178Z,0
2018-01-15T06:13:18.729Z,0
2018-01-15T06:13:44.265Z,0
2018-01-15T06:14:09.722Z,0
2018-01-15T06:14:35.197Z,0
2018-01-15T06:15:00.660Z,0
2018-01-15T06:15:26.154Z,0
2018-01-15T06:15:51.662Z,0
2018-01-15T06:16:17.184Z,0
2018-01-15T06:16:42.681Z,0
2018-01-15T06:17:08.158Z,0
2018-01-15T06:17:33.654Z,0
2018-01-15T06:17:59.144Z,0
2018-01-15T06:18:24.648Z,0
2018-01-15T06:18:50.150Z,0
2018-01-15T06:20:19.260Z,0
2018-01-15T06:20:44.736Z,0
2018-01-15T06:21:10.201Z,0
2018-01-15T06:21:35.691Z,0
2018-01-15T06:22:01.167Z,0
2018-01-15T06:22:26.644Z,0
2018-01-15T06:22:52.093Z,0
2018-01-15T06:23:17.587Z,0
2018-01-15T06:24:31.367Z,0
2018-01-15T06:24:56.846Z,0
2018-01-15T06:25:22.341Z,0
2018-01-15T06:25:47.785Z,0
2018-01-15T06:26:13.249Z,0
2018-01-15T06:26:38.794Z,0
2018-01-15T06:27:04.272Z,0
2018-01-15T06:27:29.783Z,0
2018-01-15T06:27:55.319Z,0
2018-01-15T06:28:20.781Z,0
2018-01-15T06:28:46.234Z,0
2018-01-15T06:29:11.739Z,0
2018-01-15T06:29:37.241Z,0
2018-01-15T06:30:02.743Z,0
2018-01-15T06:30:28.227Z,0
2018-01-15T06:30:53.720Z,0
2018-01-15T06:31:19.184Z,0
2018-01-15T06:31:44.670Z,0
2018-01-15T06:32:10.164Z,0
2018-01-15T06:32:35.689Z,0
2018-01-15T06:33:01.184Z,0
2018-01-15T06:33:26.677Z,0
2018-01-15T06:33:52.147Z,0
2018-01-15T06:34:17.643Z,0
2018-01-15T06:34:43.128Z,0
2018-01-15T06:35:08.627Z,0
2018-01-15T06:35:34.104Z,0
2018-01-15T06:35:59.651Z,0
2018-01-15T06:36:25.463Z,0
2018-01-15T06:36:51.088Z,0
2018-01-15T06:37:16.634Z,0
2018-01-15T06:37:42.155Z,0
2018-01-15T06:38:07.652Z,0
2018-01-15T06:38:33.248Z,0
2018-01-15T06:38:58.729Z,0
2018-01-15T06:39:24.240Z,0
2018-01-15T06:39:49.718Z,0
2018-01-15T06:40:15.212Z,0
2018-01-15T06:40:40.700Z,0
2018-01-15T06:41:06.176Z,0
2018-01-15T06:41:31.693Z,0
2018-01-15T06:41:57.131Z,0
2018-01-15T06:43:21.332Z,0
2018-01-15T06:43:46.824Z,0
2018-01-15T06:44:12.337Z,0
2018-01-15T06:44:37.821Z,0
2018-01-15T06:45:03.291Z,0
2018-01-15T06:45:28.785Z,0
2018-01-15T06:45:54.277Z,0
2018-01-15T06:46:19.748Z,0
2018-01-15T06:46:45.300Z,0
2018-01-15T06:47:10.757Z,0
2018-01-15T06:47:36.220Z,0
2018-01-15T06:48:01.738Z,0
2018-01-15T06:48:27.231Z,0
2018-01-15T06:48:52.754Z,0
2018-01-15T06:49:18.222Z,0
2018-01-15T06:50:26.921Z,0
2018-01-15T06:50:52.419Z,0
2018-01-15T06:51:17.884Z,0
2018-01-15T06:51:43.340Z,0
2018-01-15T06:52:57.154Z,0
2018-01-15T06:53:22.632Z,0
2018-01-15T06:53:48.099Z,0
2018-01-15T06:54:13.638Z,0
2018-01-15T06:54:39.146Z,0
2018-01-15T06:55:04.666Z,0
2018-01-15T06:55:30.113Z,0
2018-01-15T06:55:55.584Z,0
2018-01-15T06:56:21.058Z,0
2018-01-15T06:56:46.559Z,0
2018-01-15T06:58:58.798Z,0
2018-01-15T06:59:24.288Z,0
2018-01-15T06:59:49.788Z,0
2018-01-15T07:00:15.325Z,0
2018-01-15T07:00:40.801Z,0
2018-01-15T07:01:06.286Z,0
2018-01-15T07:01:31.764Z,0
2018-01-15T07:01:57.287Z,0
2018-01-15T07:02:22.784Z,0
2018-01-15T07:02:48.285Z,0
2018-01-15T07:03:13.791Z,0
2018-01-15T07:03:39.268Z,0
2018-01-15T07:04:04.795Z,0
2018-01-15T07:04:30.254Z,0
2018-01-15T07:04:55.712Z,0
2018-01-15T07:05:21.199Z,0
2018-01-15T07:06:45.993Z,0
2018-01-15T07:07:11.471Z,0
2018-01-15T07:07:36.957Z,0
2018-01-15T07:08:02.420Z,0
2018-01-15T07:08:27.903Z,0
2018-01-15T07:08:53.384Z,0
2018-01-15T07:09:18.847Z,0
2018-01-15T07:09:44.286Z,0
2018-01-15T07:10:09.775Z,0
2018-01-15T07:10:35.235Z,0
2018-01-15T07:11:00.836Z,0
2018-01-15T07:11:26.304Z,0
2018-01-15T07:11:51.813Z,0
2018-01-15T07:12:17.307Z,0
2018-01-15T07:13:26.789Z,0
2018-01-15T07:13:52.254Z,0
2018-01-15T07:14:17.713Z,0
2018-01-15T07:14:43.148Z,0
2018-01-15T07:15:08.690Z,0
2018-01-15T07:15:34.107Z,0
2018-01-15T07:15:59.571Z,0
2018-01-15T07:16:25.064Z,0
2018-01-15T07:16:50.538Z,0
2018-01-15T07:17:15.979Z,0
2018-01-15T07:17:41.432Z,0
2018-01-15T07:18:06.898Z,0
2018-01-15T07:18:32.552Z,0
2018-01-15T07:18:58.020Z,0
2018-01-15T07:19:23.492Z,0
2018-01-15T07:19:48.949Z,0
2018-01-15T07:20:14.430Z,0
2018-01-15T07:21:33.325Z,0
2018-01-15T07:21:58.819Z,0
2018-01-15T07:22:24.350Z,0
2018-01-15T07:22:49.805Z,0
2018-01-15T07:23:15.230Z,5
2018-01-15T07:23:40.677Z,5
2018-01-15T07:24:06.152Z,5
2018-01-15T07:24:31.595Z,5
2018-01-15T07:24:57.081Z,5
2018-01-15T07:25:22.529Z,5
2018-01-15T07:25:48.008Z,5
2018-01-15T07:26:13.459Z,5
2018-01-15T07:26:38.915Z,5
2018-01-15T07:27:04.380Z,5
2018-01-15T07:27:29.827Z,5
2018-01-15T07:27:55.323Z,5
2018-01-15T07:28:20.770Z,5
2018-01-15T07:28:46.220Z,5
2018-01-15T07:29:11.737Z,5
2018-01-15T07:29:37.190Z,5
2018-01-15T07:30:02.710Z,5
2018-01-15T07:30:28.191Z,5
2018-01-15T07:30:53.673Z,5
2018-01-15T07:31:19.170Z,10
2018-01-15T07:31:44.655Z,10
2018-01-15T07:32:10.112Z,10
2018-01-15T07:32:35.560Z,10
2018-01-15T07:33:01.073Z,5
2018-01-15T07:33:26.537Z,5
2018-01-15T07:33:52.074Z,5
2018-01-15T07:34:17.657Z,5
2018-01-15T07:34:43.038Z,10
2018-01-15T07:35:08.516Z,10
2018-01-15T07:35:34.033Z,10
2018-01-15T07:35:59.540Z,10
2018-01-15T07:36:24.929Z,10
2018-01-15T07:36:50.393Z,10
2018-01-15T07:37:15.889Z,10
2018-01-15T07:37:41.413Z,10
2018-01-15T07:38:07.081Z,10
2018-01-15T07:38:32.586Z,10
2018-01-15T07:38:58.200Z,10
2018-01-15T07:39:24.023Z,10
2018-01-15T07:39:49.711Z,10
2018-01-15T07:40:15.395Z,10
2018-01-15T07:40:40.900Z,15
2018-01-15T07:41:06.392Z,15
2018-01-15T07:41:31.886Z,15
2018-01-15T07:41:57.418Z,15
2018-01-15T07:42:22.824Z,15
2018-01-15T07:42:48.353Z,15
2018-01-15T07:43:13.800Z,15
2018-01-15T07:43:39.236Z,15
2018-01-15T07:44:04.679Z,15
2018-01-15T07:44:30.200Z,15
2018-01-15T07:44:55.664Z,15
2018-01-15T07:45:21.115Z,15
2018-01-15T07:45:46.582Z,15
2018-01-15T07:46:12.077Z,15
2018-01-15T07:46:37.591Z,15
2018-01-15T07:47:03.017Z,20
2018-01-15T07:47:28.488Z,20
2018-01-15T07:47:53.952Z,20
2018-01-15T07:48:19.409Z,20
2018-01-15T07:48:44.872Z,20
2018-01-15T07:49:10.370Z,20
2018-01-15T07:49:35.850Z,20
2018-01-15T07:50:01.360Z,20
2018-01-15T07:50:26.838Z,20
2018-01-15T07:50:52.305Z,20
2018-01-15T07:51:17.783Z,20
2018-01-15T07:51:43.245Z,20
2018-01-15T07:53:12.339Z,20
2018-01-15T07:53:37.839Z,20
2018-01-15T07:54:03.321Z,25
2018-01-15T07:54:28.784Z,25
2018-01-15T07:54:54.261Z,25
2018-01-15T07:55:19.729Z,25
2018-01-15T07:55:45.181Z,25
2018-01-15T07:56:10.634Z,25
2018-01-15T07:56:36.125Z,25
2018-01-15T07:58:06.212Z,25
2018-01-15T07:59:35.301Z,25
2018-01-15T08:00:00.759Z,25
2018-01-15T08:00:26.246Z,25
2018-01-15T08:00:51.729Z,25
2018-01-15T08:01:17.168Z,25
2018-01-15T08:01:42.631Z,30
2018-01-15T08:03:06.664Z,30
2018-01-15T08:03:32.137Z,30
2018-01-15T08:03:57.598Z,30
2018-01-15T08:04:23.072Z,30
2018-01-15T08:04:48.575Z,30
2018-01-15T08:05:14.006Z,30
2018-01-15T08:05:39.466Z,30
2018-01-15T08:06:05.061Z,30
2018-01-15T08:06:30.539Z,30
2018-01-15T08:06:56.010Z,30
2018-01-15T08:07:21.497Z,30
2018-01-15T08:07:46.979Z,30
2018-01-15T08:08:12.433Z,30
2018-01-15T08:09:41.522Z,30
2018-01-15T08:11:10.571Z,30
2018-01-15T08:11:36.081Z,30
2018-01-15T08:12:01.609Z,30
2018-01-15T08:12:27.049Z,30
2018-01-15T08:12:52.517Z,30
2018-01-15T08:13:17.959Z,30
2018-01-15T08:13:43.401Z,30
2018-01-15T08:14:08.844Z,30
2018-01-15T08:14:34.314Z,35
2018-01-15T08:14:59.736Z,35
2018-01-15T08:15:25.203Z,35
2018-01-15T08:15:50.663Z,35
2018-01-15T08:17:04.455Z,35
2018-01-15T08:17:29.925Z,35
2018-01-15T08:17:55.398Z,35
2018-01-15T08:19:09.130Z,35
2018-01-15T08:19:34.632Z,35
2018-01-15T08:20:00.088Z,35
2018-01-15T08:20:25.573Z,35
2018-01-15T08:20:51.034Z,35
2018-01-15T08:21:16.495Z,35
2018-01-15T08:21:41.939Z,35
2018-01-15T08:22:07.419Z,35
2018-01-15T08:22:32.864Z,35
2018-01-15T08:22:58.318Z,35
2018-01-15T08:23:23.792Z,35
2018-01-15T08:23:49.241Z,35
2018-01-15T08:24:14.709Z,35
2018-01-15T08:24:40.245Z,35
2018-01-15T08:25:05.742Z,35
2018-01-15T08:25:31.197Z,35
2018-01-15T08:26:50.126Z,35
2018-01-15T08:27:15.601Z,35
2018-01-15T08:27:41.093Z,35
2018-01-15T08:28:06.558Z,40
2018-01-15T08:28:32.012Z,40
2018-01-15T08:28:57.464Z,40
2018-01-15T08:29:22.892Z,40
2018-01-15T08:29:48.328Z,40
2018-01-15T08:30:13.776Z,40
2018-01-15T08:30:39.264Z,40
2018-01-15T08:31:04.754Z,40
2018-01-15T08:31:30.209Z,40
2018-01-15T08:32:49.179Z,40
2018-01-15T08:33:14.689Z,40
2018-01-15T08:33:40.171Z,45
2018-01-15T08:34:05.613Z,45
2018-01-15T08:34:31.064Z,45
2018-01-15T08:34:56.516Z,45
2018-01-15T08:35:22.005Z,45
2018-01-15T08:35:47.486Z,45
2018-01-15T08:36:12.903Z,45
2018-01-15T08:36:38.356Z,45
2018-01-15T08:38:07.419Z,45
2018-01-15T08:38:32.918Z,45
2018-01-15T08:38:58.398Z,45
2018-01-15T08:39:23.830Z,45
2018-01-15T08:39:49.301Z,45
2018-01-15T08:40:14.769Z,45
2018-01-15T08:40:40.221Z,45
2018-01-15T08:41:05.710Z,40
2018-01-15T08:41:31.175Z,40
2018-01-15T08:41:56.658Z,40
2018-01-15T08:42:22.134Z,40
2018-01-15T08:42:47.617Z,40
2018-01-15T08:43:13.098Z,40
2018-01-15T08:43:38.569Z,40
2018-01-15T08:44:04.067Z,40
2018-01-15T08:44:29.488Z,40
2018-01-15T08:44:55.023Z,40
2018-01-15T08:45:20.442Z,40
2018-01-15T08:45:45.913Z,40
2018-01-15T08:46:11.367Z,40
2018-01-15T08:46:36.836Z,40
2018-01-15T08:47:02.281Z,45
2018-01-15T08:47:27.753Z,45
2018-01-15T08:47:53.222Z,45
2018-01-15T08:48:18.689Z,45
2018-01-15T08:48:44.155Z,45
2018-01-15T08:49:09.605Z,45
2018-01-15T08:49:35.083Z,45
2018-01-15T08:50:00.548Z,45
2018-01-15T08:50:25.996Z,45
2018-01-15T08:50:51.450Z,45
2018-01-15T08:51:16.929Z,45
2018-01-15T08:51:42.350Z,50
2018-01-15T08:52:07.800Z,50
2018-01-15T08:52:33.263Z,45
2018-01-15T08:52:58.769Z,45
2018-01-15T08:53:24.213Z,45
2018-01-15T08:53:49.688Z,45
2018-01-15T08:55:08.592Z,45
2018-01-15T08:55:34.085Z,50
2018-01-15T08:55:59.581Z,50
2018-01-15T08:56:25.026Z,50
2018-01-15T08:57:43.914Z,50
2018-01-15T08:58:09.426Z,50
2018-01-15T08:58:34.917Z,50
2018-01-15T08:59:00.358Z,50
2018-01-15T08:59:25.791Z,50
2018-01-15T08:59:51.270Z,50
2018-01-15T09:01:20.353Z,55
2018-01-15T09:01:45.853Z,55
2018-01-15T09:02:11.321Z,55
2018-01-15T09:02:36.784Z,55
2018-01-15T09:03:02.235Z,60
2018-01-15T09:03:27.707Z,60
2018-01-15T09:03:53.165Z,60
2018-01-15T09:04:18.645Z,60
2018-01-15T09:04:44.078Z,60
2018-01-15T09:06:13.114Z,65
2018-01-15T09:06:38.596Z,65
2018-01-15T09:07:04.060Z,60
2018-01-15T09:07:29.488Z,65
2018-01-15T09:07:54.993Z,60
2018-01-15T09:08:20.487Z,60
2018-01-15T09:08:45.941Z,60
2018-01-15T09:09:11.404Z,60
2018-01-15T09:09:36.889Z,60
2018-01-15T09:10:02.363Z,60
2018-01-15T09:10:27.865Z,65
2018-01-15T09:10:53.314Z,65
2018-01-15T09:11:18.780Z,65
2018-01-15T09:11:44.281Z,60
2018-01-15T09:12:09.705Z,60
2018-01-15T09:12:35.177Z,60
2018-01-15T09:13:00.645Z,60
2018-01-15T09:13:26.125Z,65
2018-01-15T09:13:51.599Z,65
2018-01-15T09:14:17.105Z,60
2018-01-15T09:14:42.549Z,65
2018-01-15T09:15:08.009Z,65
2018-01-15T09:15:33.504Z,65
2018-01-15T09:15:58.993Z,65
2018-01-15T09:17:28.054Z,60
2018-01-15T09:17:53.522Z,60
2018-01-15T09:18:19.033Z,60
2018-01-15T09:19:48.090Z,60
2018-01-15T09:20:13.609Z,60
2018-01-15T09:20:39.103Z,60
2018-01-15T09:21:04.568Z,60
2018-01-15T09:21:30.031Z,60
2018-01-15T09:21:55.476Z,60
2018-01-15T09:22:20.939Z,60
2018-01-15T09:22:46.400Z,60
2018-01-15T09:23:11.865Z,60
2018-01-15T09:23:37.327Z,65
2018-01-15T09:24:02.788Z,65
2018-01-15T09:24:28.283Z,70
2018-01-15T09:24:53.773Z,70
2018-01-15T09:25:19.264Z,75
2018-01-15T09:25:44.776Z,75
2018-01-15T09:26:10.277Z,75
2018-01-15T09:26:35.698Z,80
2018-01-15T09:27:01.169Z,80
2018-01-15T09:27:26.665Z,80
2018-01-15T09:27:52.103Z,85
2018-01-15T09:28:17.587Z,85
2018-01-15T09:28:43.029Z,85
2018-01-15T09:29:08.528Z,85
2018-01-15T09:29:33.990Z,85
2018-01-15T09:29:59.446Z,85
2018-01-15T09:30:24.898Z,90
2018-01-15T09:30:50.368Z,90
2018-01-15T09:31:15.836Z,90
2018-01-15T09:31:41.393Z,90
2018-01-15T09:32:06.799Z,90
2018-01-15T09:32:32.278Z,90
2018-01-15T09:33:46.045Z,95
2018-01-15T09:34:11.512Z,95
2018-01-15T09:34:36.959Z,95
2018-01-15T09:35:02.475Z,95
2018-01-15T09:35:27.916Z,95
2018-01-15T09:35:53.396Z,100
2018-01-15T09:36:18.850Z,100
2018-01-15T09:36:44.298Z,100
2018-01-15T09:37:09.790Z,100
2018-01-15T09:37:35.237Z,100
2018-01-15T09:38:00.721Z,100
2018-01-15T09:38:26.150Z,105
2018-01-15T09:38:51.647Z,105
2018-01-15T09:39:17.109Z,105
2018-01-15T09:39:42.558Z,105
2018-01-15T09:40:08.024Z,105
2018-01-15T09:40:33.485Z,105
2018-01-15T09:40:58.938Z,105
2018-01-15T09:41:24.415Z,105
2018-01-15T09:41:49.861Z,105
2018-01-15T09:42:15.370Z,105
2018-01-15T09:42:40.789Z,105
2018-01-15T09:43:06.235Z,105
2018-01-15T09:43:31.684Z,105
2018-01-15T09:43:57.190Z,105
2018-01-15T09:44:22.651Z,105
2018-01-15T09:44:48.095Z,105
2018-01-15T09:45:13.617Z,105
2018-01-15T09:45:38.990Z,105
2018-01-15T09:46:04.454Z,105
2018-01-15T09:46:29.892Z,105
2018-01-15T09:46:55.364Z,100
2018-01-15T09:48:24.407Z,100
2018-01-15T09:48:49.925Z,100
2018-01-15T09:49:15.486Z,100
2018-01-15T09:49:40.907Z,100
2018-01-15T09:50:06.396Z,100
2018-01-15T09:50:31.946Z,100
2018-01-15T09:50:57.356Z,100
2018-01-15T09:51:22.831Z,100
2018-01-15T09:51:48.282Z,95
2018-01-15T09:52:13.759Z,95
2018-01-15T09:53:38.512Z,90
2018-01-15T09:54:03.983Z,90
2018-01-15T09:54:29.446Z,90
2018-01-15T09:54:54.901Z,90
2018-01-15T09:55:20.390Z,90
2018-01-15T09:55:45.850Z,90
2018-01-15T09:57:09.797Z,90
2018-01-15T09:57:35.297Z,90
2018-01-15T09:58:00.785Z,90
2018-01-15T09:58:26.223Z,90
2018-01-15T09:58:51.688Z,95
2018-01-15T09:59:17.148Z,90
2018-01-15T09:59:42.624Z,90
2018-01-15T10:00:08.103Z,90
2018-01-15T10:00:33.552Z,90
2018-01-15T10:00:59.024Z,90
2018-01-15T10:01:24.497Z,90
2018-01-15T10:01:49.951Z,90
2018-01-15T10:02:15.427Z,90
2018-01-15T10:02:40.841Z,95
2018-01-15T10:03:06.275Z,95
2018-01-15T10:03:31.745Z,95
2018-01-15T10:03:57.205Z,95
2018-01-15T10:04:22.654Z,100
2018-01-15T10:04:48.103Z,100
2018-01-15T10:05:13.572Z,105
2018-01-15T10:05:39.069Z,105
2018-01-15T10:06:04.510Z,110
2018-01-15T10:06:29.978Z,110
2018-01-15T10:06:55.435Z,115
2018-01-15T10:08:24.509Z,125
2018-01-15T10:08:49.978Z,125
2018-01-15T10:09:58.663Z,135
2018-01-15T10:10:24.135Z,135
2018-01-15T10:10:49.598Z,140
2018-01-15T10:11:15.071Z,140
2018-01-15T10:11:40.550Z,145
2018-01-15T10:12:05.977Z,145
2018-01-15T10:12:31.466Z,145
2018-01-15T10:12:56.931Z,145
2018-01-15T10:13:22.387Z,145
2018-01-15T10:13:47.897Z,145
2018-01-15T10:15:06.844Z,140
2018-01-15T10:15:32.330Z,140
2018-01-15T10:15:57.811Z,140
2018-01-15T10:16:23.316Z,140
2018-01-15T10:16:48.783Z,140
2018-01-15T10:18:17.874Z,140
2018-01-15T10:18:43.348Z,140
2018-01-15T10:19:08.836Z,135
2018-01-15T10:19:34.330Z,135
2018-01-15T10:19:59.802Z,135
2018-01-15T10:20:25.253Z,130
2018-01-15T10:20:50.714Z,130
2018-01-15T10:21:16.193Z,125
2018-01-15T10:22:35.130Z,120
2018-01-15T10:23:00.625Z,120
2018-01-15T10:23:26.091Z,115
2018-01-15T10:23:51.566Z,115
2018-01-15T10:24:17.066Z,110
2018-01-15T10:24:42.546Z,110
2018-01-15T10:25:07.997Z,105
2018-01-15T10:25:33.516Z,105
2018-01-15T10:25:59.137Z,105
2018-01-15T10:26:24.625Z,100
2018-01-15T10:27:39.123Z,100
2018-01-15T10:28:04.609Z,100
2018-01-15T10:28:30.144Z,100
2018-01-15T10:28:55.603Z,100
2018-01-15T10:29:21.145Z,100
2018-01-15T10:29:46.633Z,100
2018-01-15T10:30:12.148Z,100
2018-01-15T10:30:37.625Z,105
2018-01-15T10:31:03.131Z,105
2018-01-15T10:31:28.633Z,105
2018-01-15T10:32:42.465Z,105
2018-01-15T10:33:07.948Z,105
2018-01-15T10:33:33.418Z,105
2018-01-15T10:33:58.915Z,105
2018-01-15T10:34:24.502Z,105
2018-01-15T10:34:49.971Z,105
2018-01-15T10:35:15.554Z,105
2018-01-15T10:35:41.030Z,105
2018-01-15T10:36:06.478Z,105
2018-01-15T10:36:31.959Z,105
2018-01-15T10:36:57.406Z,100
2018-01-15T10:37:22.916Z,100
2018-01-15T10:37:48.380Z,100
2018-01-15T10:38:13.873Z,100
2018-01-15T10:39:27.645Z,95
2018-01-15T10:39:53.141Z,95
2018-01-15T10:40:18.644Z,95
2018-01-15T10:41:47.699Z,100
2018-01-15T10:42:13.192Z,100
2018-01-15T10:42:38.691Z,100
2018-01-15T10:43:04.177Z,100
2018-01-15T10:43:29.645Z,100
2018-01-15T10:43:55.138Z,100
2018-01-15T10:44:20.604Z,100
2018-01-15T10:44:46.071Z,105
2018-01-15T10:45:11.552Z,105
2018-01-15T10:45:37.034Z,105
2018-01-15T10:46:02.495Z,105
2018-01-15T10:46:27.981Z,105
2018-01-15T10:46:53.460Z,105
2018-01-15T10:47:18.969Z,105
2018-01-15T10:47:44.439Z,105
2018-01-15T10:48:09.986Z,105
2018-01-15T10:48:35.447Z,105
2018-01-15T10:49:00.946Z,105
2018-01-15T10:49:26.488Z,105
2018-01-15T10:49:51.999Z,105
2018-01-15T10:50:17.471Z,100
2018-01-15T10:50:42.975Z,100
2018-01-15T10:51:08.451Z,100
2018-01-15T10:51:33.957Z,95
2018-01-15T10:51:59.480Z,95
2018-01-15T10:52:24.940Z,95
2018-01-15T10:52:50.455Z,90
2018-01-15T10:53:15.937Z,90
2018-01-15T10:53:41.413Z,90
2018-01-15T10:54:06.902Z,90
2018-01-15T10:54:32.366Z,90
2018-01-15T10:54:57.874Z,90
2018-01-15T10:55:23.386Z,90
2018-01-15T10:56:52.668Z,90
2018-01-15T10:57:18.141Z,90
2018-01-15T10:57:43.690Z,90
2018-01-15T10:58:09.161Z,90
2018-01-15T10:58:34.658Z,90
2018-01-15T10:59:00.193Z,95
2018-01-15T10:59:25.711Z,95
2018-01-15T10:59:51.286Z,95
2018-01-15T11:00:16.730Z,95
2018-01-15T11:00:42.202Z,95
2018-01-15T11:01:07.711Z,100
2018-01-15T11:01:33.178Z,100
2018-01-15T11:01:58.637Z,100
2018-01-15T11:02:24.120Z,100
2018-01-15T11:02:49.589Z,100
2018-01-15T11:03:15.087Z,95
2018-01-15T11:03:40.608Z,95
2018-01-15T11:04:06.106Z,95
2018-01-15T11:04:31.621Z,95
2018-01-15T11:04:57.137Z,95
2018-01-15T11:05:22.587Z,95
2018-01-15T11:06:41.557Z,95
2018-01-15T11:07:07.026Z,95
2018-01-15T11:07:32.503Z,95
2018-01-15T11:07:57.974Z,95
2018-01-15T11:08:23.456Z,95
2018-01-15T11:08:48.964Z,95
2018-01-15T11:09:14.466Z,100
2018-01-15T11:09:39.914Z,100
2018-01-15T11:10:05.360Z,100
2018-01-15T11:10:30.877Z,100
2018-01-15T11:10:56.373Z,100
2018-01-15T11:11:21.868Z,105
2018-01-15T11:11:47.393Z,105
2018-01-15T11:12:12.917Z,105
2018-01-15T11:12:38.372Z,105
2018-01-15T11:13:03.839Z,105
2018-01-15T11:13:29.390Z,105
2018-01-15T11:13:54.837Z,105
2018-01-15T11:14:20.310Z,105
2018-01-15T11:14:45.808Z,105
2018-01-15T11:15:11.286Z,105
2018-01-15T11:15:36.769Z,110
2018-01-15T11:16:55.841Z,110
2018-01-15T11:17:21.319Z,110
2018-01-15T11:17:46.838Z,115
2018-01-15T11:18:12.318Z,115
2018-01-15T11:18:37.866Z,115
2018-01-15T11:19:03.310Z,115
2018-01-15T11:19:28.793Z,115
2018-01-15T11:19:54.267Z,115
2018-01-15T11:20:19.713Z,120
2018-01-15T11:20:45.247Z,120
2018-01-15T11:21:10.736Z,120
2018-01-15T11:22:39.819Z,125
2018-01-15T11:23:05.316Z,125
2018-01-15T11:23:30.976Z,125
2018-01-15T11:23:56.434Z,130
2018-01-15T11:24:21.881Z,130
2018-01-15T11:24:47.367Z,135
2018-01-15T11:25:12.860Z,135
2018-01-15T11:25:38.369Z,135
2018-01-15T11:26:03.806Z,135
2018-01-15T11:26:29.309Z,135
2018-01-15T11:26:54.764Z,140
2018-01-15T11:27:20.269Z,140
2018-01-15T11:27:45.712Z,140
2018-01-15T11:28:11.151Z,140
2018-01-15T11:28:36.642Z,140
2018-01-15T11:29:02.087Z,140
2018-01-15T11:29:27.587Z,145
2018-01-15T11:29:53.087Z,145
2018-01-15T11:30:18.495Z,145
2018-01-15T11:30:43.941Z,145
2018-01-15T11:31:09.428Z,145
2018-01-15T11:31:34.883Z,145
2018-01-15T11:32:00.368Z,145
2018-01-15T11:32:25.866Z,145
2018-01-15T11:32:51.283Z,145
2018-01-15T11:33:16.744Z,145
2018-01-15T11:33:42.243Z,145
2018-01-15T11:34:07.664Z,145
2018-01-15T11:34:33.140Z,140
2018-01-15T11:34:58.643Z,140
2018-01-15T11:35:24.057Z,140
2018-01-15T11:35:49.519Z,140
2018-01-15T11:36:14.984Z,140
2018-01-15T11:36:40.420Z,135
2018-01-15T11:37:05.886Z,135
2018-01-15T11:37:31.387Z,130
2018-01-15T11:37:56.838Z,130
2018-01-15T11:38:22.293Z,125
2018-01-15T11:38:47.779Z,125
2018-01-15T11:39:13.204Z,120
2018-01-15T11:39:38.677Z,120
2018-01-15T11:40:04.152Z,115
2018-01-15T11:40:29.608Z,115
2018-01-15T11:40:55.040Z,110
2018-01-15T11:41:20.497Z,110
2018-01-15T11:41:45.987Z,105
2018-01-15T11:42:11.423Z,105
2018-01-15T11:42:36.900Z,100
2018-01-15T11:43:02.365Z,100
2018-01-15T11:43:27.813Z,95
2018-01-15T11:43:53.273Z,95
2018-01-15T11:45:01.959Z,90
2018-01-15T11:45:27.472Z,90
2018-01-15T11:45:52.925Z,90
2018-01-15T11:46:18.427Z,90
2018-01-15T11:46:43.877Z,95
2018-01-15T11:47:09.289Z,95
2018-01-15T11:47:34.786Z,95
2018-01-15T11:48:00.246Z,95
2018-01-15T11:48:25.668Z,100
2018-01-15T11:48:51.126Z,100
2018-01-15T11:49:16.586Z,100
2018-01-15T11:49:42.038Z,100
2018-01-15T11:50:55.844Z,105
2018-01-15T11:51:21.338Z,105
2018-01-15T11:51:46.767Z,105
2018-01-15T11:52:12.264Z,100
2018-01-15T11:52:37.726Z,100
2018-01-15T11:53:03.186Z,100
2018-01-15T11:53:28.646Z,100
2018-01-15T11:53:54.109Z,100
2018-01-15T11:54:19.560Z,105
2018-01-15T11:54:45.043Z,105
2018-01-15T11:55:10.484Z,105
2018-01-15T11:55:35.956Z,105
2018-01-15T11:56:01.427Z,110
2018-01-15T11:56:26.890Z,110
2018-01-15T11:56:52.380Z,115
2018-01-15T11:57:17.826Z,115
2018-01-15T11:57:43.272Z,115
2018-01-15T11:58:08.729Z,115
2018-01-15T11:58:34.168Z,115